sensor_id;sensor_type;location;lat;lon;timestamp;temperature;humidity
67557;DHT22;54387;53.526;49.300;2023-04-15T00:00:17;-1.10;24.70
67557;DHT22;54387;53.526;49.300;2023-04-15T00:02:43;-1.00;24.80
67557;DHT22;54387;53.526;49.300;2023-04-15T00:05:10;-1.10;24.70
67557;DHT22;54387;53.526;49.300;2023-04-15T00:07:36;-1.10;24.90
67557;DHT22;54387;53.526;49.300;2023-04-15T00:10:03;-1.10;24.90
67557;DHT22;54387;53.526;49.300;2023-04-15T00:12:30;-1.10;24.90
67557;DHT22;54387;53.526;49.300;2023-04-15T00:14:56;-1.10;25.00
67557;DHT22;54387;53.526;49.300;2023-04-15T00:17:23;-1.20;25.00
67557;DHT22;54387;53.526;49.300;2023-04-15T00:19:50;-1.20;25.00
67557;DHT22;54387;53.526;49.300;2023-04-15T00:22:16;-1.20;25.20
67557;DHT22;54387;53.526;49.300;2023-04-15T00:24:43;-1.30;25.10
67557;DHT22;54387;53.526;49.300;2023-04-15T00:27:09;-1.30;25.20
67557;DHT22;54387;53.526;49.300;2023-04-15T00:29:35;-1.40;25.20
67557;DHT22;54387;53.526;49.300;2023-04-15T00:32:01;-1.40;25.30
67557;DHT22;54387;53.526;49.300;2023-04-15T00:34:27;-1.40;25.40
67557;DHT22;54387;53.526;49.300;2023-04-15T00:36:54;-1.40;25.40
67557;DHT22;54387;53.526;49.300;2023-04-15T00:39:21;-1.50;25.50
67557;DHT22;54387;53.526;49.300;2023-04-15T00:41:47;-1.50;25.60
67557;DHT22;54387;53.526;49.300;2023-04-15T00:44:14;-1.50;25.60
67557;DHT22;54387;53.526;49.300;2023-04-15T00:46:40;-1.50;25.70
67557;DHT22;54387;53.526;49.300;2023-04-15T00:49:08;-1.60;25.70
67557;DHT22;54387;53.526;49.300;2023-04-15T00:51:34;-1.60;25.70
67557;DHT22;54387;53.526;49.300;2023-04-15T00:54:04;-1.60;25.80
67557;DHT22;54387;53.526;49.300;2023-04-15T00:56:33;-1.60;25.90
67557;DHT22;54387;53.526;49.300;2023-04-15T00:59:00;-1.70;25.90
67557;DHT22;54387;53.526;49.300;2023-04-15T01:01:27;-1.70;25.90
67557;DHT22;54387;53.526;49.300;2023-04-15T01:03:55;-1.70;25.90
67557;DHT22;54387;53.526;49.300;2023-04-15T01:06:21;-1.70;26.10
67557;DHT22;54387;53.526;49.300;2023-04-15T01:08:48;-1.80;26.10
67557;DHT22;54387;53.526;49.300;2023-04-15T01:11:14;-1.80;26.20
67557;DHT22;54387;53.526;49.300;2023-04-15T01:13:40;-1.80;26.20
67557;DHT22;54387;53.526;49.300;2023-04-15T01:16:07;-1.80;26.30
67557;DHT22;54387;53.526;49.300;2023-04-15T01:18:37;-1.90;26.30
67557;DHT22;54387;53.526;49.300;2023-04-15T01:21:03;-1.90;26.30
67557;DHT22;54387;53.526;49.300;2023-04-15T01:23:30;-1.90;26.40
67557;DHT22;54387;53.526;49.300;2023-04-15T01:25:57;-1.90;26.50
67557;DHT22;54387;53.526;49.300;2023-04-15T01:28:24;-1.90;26.60
67557;DHT22;54387;53.526;49.300;2023-04-15T01:31:03;-1.90;26.60
67557;DHT22;54387;53.526;49.300;2023-04-15T01:33:30;-1.90;26.60
67557;DHT22;54387;53.526;49.300;2023-04-15T01:35:57;-1.90;26.60
67557;DHT22;54387;53.526;49.300;2023-04-15T01:38:24;-2.00;26.60
67557;DHT22;54387;53.526;49.300;2023-04-15T01:40:50;-2.00;26.80
67557;DHT22;54387;53.526;49.300;2023-04-15T01:43:16;-2.00;26.80
67557;DHT22;54387;53.526;49.300;2023-04-15T01:45:43;-2.00;26.80
67557;DHT22;54387;53.526;49.300;2023-04-15T01:48:10;-2.00;26.90
67557;DHT22;54387;53.526;49.300;2023-04-15T01:50:37;-2.10;26.80
67557;DHT22;54387;53.526;49.300;2023-04-15T01:53:03;-2.10;26.90
67557;DHT22;54387;53.526;49.300;2023-04-15T01:55:29;-2.10;26.90
67557;DHT22;54387;53.526;49.300;2023-04-15T01:57:56;-2.10;27.10
67557;DHT22;54387;53.526;49.300;2023-04-15T02:00:23;-2.10;27.00
67557;DHT22;54387;53.526;49.300;2023-04-15T02:02:50;-2.20;27.10
67557;DHT22;54387;53.526;49.300;2023-04-15T02:05:16;-2.20;27.10
67557;DHT22;54387;53.526;49.300;2023-04-15T02:07:42;-2.20;27.20
67557;DHT22;54387;53.526;49.300;2023-04-15T02:10:09;-2.20;27.20
67557;DHT22;54387;53.526;49.300;2023-04-15T02:12:35;-2.20;27.20
67557;DHT22;54387;53.526;49.300;2023-04-15T02:15:01;-2.20;27.10
67557;DHT22;54387;53.526;49.300;2023-04-15T02:17:28;-2.20;27.20
67557;DHT22;54387;53.526;49.300;2023-04-15T02:19:57;-2.20;27.20
67557;DHT22;54387;53.526;49.300;2023-04-15T02:22:24;-2.20;27.30
67557;DHT22;54387;53.526;49.300;2023-04-15T02:24:50;-2.10;27.40
67557;DHT22;54387;53.526;49.300;2023-04-15T02:27:16;-2.20;27.30
67557;DHT22;54387;53.526;49.300;2023-04-15T02:29:43;-2.20;27.40
67557;DHT22;54387;53.526;49.300;2023-04-15T02:32:13;-2.20;27.40
67557;DHT22;54387;53.526;49.300;2023-04-15T02:34:39;-2.20;27.40
67557;DHT22;54387;53.526;49.300;2023-04-15T02:37:08;-2.20;27.50
67557;DHT22;54387;53.526;49.300;2023-04-15T02:39:34;-2.20;27.50
67557;DHT22;54387;53.526;49.300;2023-04-15T02:42:01;-2.20;27.50
67557;DHT22;54387;53.526;49.300;2023-04-15T02:44:28;-2.10;27.60
67557;DHT22;54387;53.526;49.300;2023-04-15T02:46:54;-2.10;27.60
67557;DHT22;54387;53.526;49.300;2023-04-15T02:49:20;-2.10;27.60
67557;DHT22;54387;53.526;49.300;2023-04-15T02:51:47;-2.10;27.60
67557;DHT22;54387;53.526;49.300;2023-04-15T02:54:15;-2.10;27.60
67557;DHT22;54387;53.526;49.300;2023-04-15T02:56:42;-2.00;27.60
67557;DHT22;54387;53.526;49.300;2023-04-15T02:59:08;-2.00;27.60
67557;DHT22;54387;53.526;49.300;2023-04-15T03:01:35;-2.00;27.70
67557;DHT22;54387;53.526;49.300;2023-04-15T03:04:02;-2.00;27.60
67557;DHT22;54387;53.526;49.300;2023-04-15T03:06:28;-2.00;27.60
67557;DHT22;54387;53.526;49.300;2023-04-15T03:08:54;-1.90;27.60
67557;DHT22;54387;53.526;49.300;2023-04-15T03:11:21;-1.90;27.60
67557;DHT22;54387;53.526;49.300;2023-04-15T03:13:48;-1.80;27.50
67557;DHT22;54387;53.526;49.300;2023-04-15T03:16:14;-1.80;27.40
67557;DHT22;54387;53.526;49.300;2023-04-15T03:18:41;-1.70;27.50
67557;DHT22;54387;53.526;49.300;2023-04-15T03:21:07;-1.60;27.40
67557;DHT22;54387;53.526;49.300;2023-04-15T03:23:33;-1.60;27.30
67557;DHT22;54387;53.526;49.300;2023-04-15T03:26:03;-1.50;27.30
67557;DHT22;54387;53.526;49.300;2023-04-15T03:28:30;-1.50;27.20
67557;DHT22;54387;53.526;49.300;2023-04-15T03:30:56;-1.50;27.20
67557;DHT22;54387;53.526;49.300;2023-04-15T03:33:22;-1.50;27.00
67557;DHT22;54387;53.526;49.300;2023-04-15T03:35:49;-1.40;27.10
67557;DHT22;54387;53.526;49.300;2023-04-15T03:38:16;-1.40;27.00
67557;DHT22;54387;53.526;49.300;2023-04-15T03:40:42;-1.40;27.00
67557;DHT22;54387;53.526;49.300;2023-04-15T03:43:08;-1.40;27.00
67557;DHT22;54387;53.526;49.300;2023-04-15T03:45:34;-1.30;26.90
67557;DHT22;54387;53.526;49.300;2023-04-15T03:48:00;-1.30;27.00
67557;DHT22;54387;53.526;49.300;2023-04-15T03:50:27;-1.20;26.80
67557;DHT22;54387;53.526;49.300;2023-04-15T03:52:53;-1.20;26.80
67557;DHT22;54387;53.526;49.300;2023-04-15T03:55:19;-1.20;26.80
67557;DHT22;54387;53.526;49.300;2023-04-15T03:57:46;-1.10;26.80
67557;DHT22;54387;53.526;49.300;2023-04-15T04:00:12;-1.10;26.50
67557;DHT22;54387;53.526;49.300;2023-04-15T04:02:39;-1.10;26.60
67557;DHT22;54387;53.526;49.300;2023-04-15T04:05:05;-1.10;26.60
67557;DHT22;54387;53.526;49.300;2023-04-15T04:07:31;-1.00;26.50
67557;DHT22;54387;53.526;49.300;2023-04-15T04:09:58;-1.00;26.30
67557;DHT22;54387;53.526;49.300;2023-04-15T04:12:24;-1.00;26.30
67557;DHT22;54387;53.526;49.300;2023-04-15T04:14:50;-0.90;26.50
67557;DHT22;54387;53.526;49.300;2023-04-15T04:17:17;-0.90;26.50
67557;DHT22;54387;53.526;49.300;2023-04-15T04:19:45;-0.90;26.40
67557;DHT22;54387;53.526;49.300;2023-04-15T04:22:11;-0.80;26.40
67557;DHT22;54387;53.526;49.300;2023-04-15T04:24:37;-0.70;26.50
67557;DHT22;54387;53.526;49.300;2023-04-15T04:27:03;-0.70;26.60
67557;DHT22;54387;53.526;49.300;2023-04-15T04:29:30;-0.60;26.50
67557;DHT22;54387;53.526;49.300;2023-04-15T04:31:56;-0.50;26.30
67557;DHT22;54387;53.526;49.300;2023-04-15T04:34:23;-0.50;26.10
67557;DHT22;54387;53.526;49.300;2023-04-15T04:36:49;-0.50;26.10
67557;DHT22;54387;53.526;49.300;2023-04-15T04:39:15;-0.50;26.20
67557;DHT22;54387;53.526;49.300;2023-04-15T04:41:41;-0.40;26.30
67557;DHT22;54387;53.526;49.300;2023-04-15T04:44:07;-0.40;26.20
67557;DHT22;54387;53.526;49.300;2023-04-15T04:46:34;-0.40;26.00
67557;DHT22;54387;53.526;49.300;2023-04-15T04:49:00;-0.30;25.90
67557;DHT22;54387;53.526;49.300;2023-04-15T04:51:26;-0.30;25.70
67557;DHT22;54387;53.526;49.300;2023-04-15T04:53:53;-0.20;25.70
67557;DHT22;54387;53.526;49.300;2023-04-15T04:56:19;-0.20;25.60
67557;DHT22;54387;53.526;49.300;2023-04-15T04:58:46;-0.10;25.60
67557;DHT22;54387;53.526;49.300;2023-04-15T05:01:12;0.00;25.60
67557;DHT22;54387;53.526;49.300;2023-04-15T05:03:38;0.00;25.40
67557;DHT22;54387;53.526;49.300;2023-04-15T05:06:05;0.10;25.40
67557;DHT22;54387;53.526;49.300;2023-04-15T05:08:33;0.10;25.30
67557;DHT22;54387;53.526;49.300;2023-04-15T05:10:59;0.20;25.10
67557;DHT22;54387;53.526;49.300;2023-04-15T05:13:26;0.20;25.10
67557;DHT22;54387;53.526;49.300;2023-04-15T05:15:52;0.30;25.00
67557;DHT22;54387;53.526;49.300;2023-04-15T05:18:18;0.30;25.00
67557;DHT22;54387;53.526;49.300;2023-04-15T05:20:45;0.40;24.90
67557;DHT22;54387;53.526;49.300;2023-04-15T05:23:11;0.50;25.00
67557;DHT22;54387;53.526;49.300;2023-04-15T05:25:38;0.50;24.80
67557;DHT22;54387;53.526;49.300;2023-04-15T05:28:04;0.60;24.70
67557;DHT22;54387;53.526;49.300;2023-04-15T05:30:30;0.60;24.60
67557;DHT22;54387;53.526;49.300;2023-04-15T05:32:56;0.70;24.60
67557;DHT22;54387;53.526;49.300;2023-04-15T05:35:23;0.70;24.40
67557;DHT22;54387;53.526;49.300;2023-04-15T05:37:49;0.70;24.70
67557;DHT22;54387;53.526;49.300;2023-04-15T05:40:16;0.80;24.40
67557;DHT22;54387;53.526;49.300;2023-04-15T05:42:42;0.90;24.30
67557;DHT22;54387;53.526;49.300;2023-04-15T05:45:08;0.90;24.20
67557;DHT22;54387;53.526;49.300;2023-04-15T05:47:35;1.00;24.10
67557;DHT22;54387;53.526;49.300;2023-04-15T05:50:03;1.10;24.10
67557;DHT22;54387;53.526;49.300;2023-04-15T05:52:30;1.10;24.00
67557;DHT22;54387;53.526;49.300;2023-04-15T05:54:56;1.20;23.90
67557;DHT22;54387;53.526;49.300;2023-04-15T05:57:23;1.20;23.90
67557;DHT22;54387;53.526;49.300;2023-04-15T05:59:49;1.30;23.90
67557;DHT22;54387;53.526;49.300;2023-04-15T06:02:17;1.30;24.00
67557;DHT22;54387;53.526;49.300;2023-04-15T06:04:44;1.30;23.50
67557;DHT22;54387;53.526;49.300;2023-04-15T06:07:10;1.40;23.60
67557;DHT22;54387;53.526;49.300;2023-04-15T06:09:37;1.50;23.50
67557;DHT22;54387;53.526;49.300;2023-04-15T06:12:03;1.50;23.40
67557;DHT22;54387;53.526;49.300;2023-04-15T06:14:29;1.60;23.20
67557;DHT22;54387;53.526;49.300;2023-04-15T06:16:56;1.70;23.10
67557;DHT22;54387;53.526;49.300;2023-04-15T06:19:22;1.80;23.00
67557;DHT22;54387;53.526;49.300;2023-04-15T06:21:49;1.80;23.00
67557;DHT22;54387;53.526;49.300;2023-04-15T06:24:15;1.80;22.60
67557;DHT22;54387;53.526;49.300;2023-04-15T06:26:42;1.90;22.70
67557;DHT22;54387;53.526;49.300;2023-04-15T06:29:08;2.00;22.60
67557;DHT22;54387;53.526;49.300;2023-04-15T06:31:34;2.10;22.50
67557;DHT22;54387;53.526;49.300;2023-04-15T06:34:00;2.30;22.70
67557;DHT22;54387;53.526;49.300;2023-04-15T06:36:27;2.40;22.50
67557;DHT22;54387;53.526;49.300;2023-04-15T06:38:53;2.40;22.20
67557;DHT22;54387;53.526;49.300;2023-04-15T06:41:19;2.40;21.70
67557;DHT22;54387;53.526;49.300;2023-04-15T06:43:46;2.40;21.60
67557;DHT22;54387;53.526;49.300;2023-04-15T06:46:12;2.40;21.70
67557;DHT22;54387;53.526;49.300;2023-04-15T06:48:38;2.50;22.10
67557;DHT22;54387;53.526;49.300;2023-04-15T06:51:05;2.60;22.20
67557;DHT22;54387;53.526;49.300;2023-04-15T06:53:31;2.70;22.10
67557;DHT22;54387;53.526;49.300;2023-04-15T06:55:57;2.80;22.00
67557;DHT22;54387;53.526;49.300;2023-04-15T06:58:24;2.90;21.90
67557;DHT22;54387;53.526;49.300;2023-04-15T07:00:51;3.00;21.80
67557;DHT22;54387;53.526;49.300;2023-04-15T07:03:17;3.00;21.70
67557;DHT22;54387;53.526;49.300;2023-04-15T07:05:44;3.10;21.50
67557;DHT22;54387;53.526;49.300;2023-04-15T07:08:10;3.10;21.50
67557;DHT22;54387;53.526;49.300;2023-04-15T07:10:37;3.10;21.30
67557;DHT22;54387;53.526;49.300;2023-04-15T07:13:03;3.20;21.40
67557;DHT22;54387;53.526;49.300;2023-04-15T07:15:30;3.30;21.30
67557;DHT22;54387;53.526;49.300;2023-04-15T07:17:56;3.30;21.20
67557;DHT22;54387;53.526;49.300;2023-04-15T07:20:23;3.30;21.00
67557;DHT22;54387;53.526;49.300;2023-04-15T07:22:49;3.50;21.00
67557;DHT22;54387;53.526;49.300;2023-04-15T07:25:15;3.50;20.80
67557;DHT22;54387;53.526;49.300;2023-04-15T07:27:42;3.60;20.60
67557;DHT22;54387;53.526;49.300;2023-04-15T07:30:08;3.70;20.60
67557;DHT22;54387;53.526;49.300;2023-04-15T07:32:35;3.80;20.30
67557;DHT22;54387;53.526;49.300;2023-04-15T07:35:01;3.90;20.20
67557;DHT22;54387;53.526;49.300;2023-04-15T07:37:28;3.90;20.10
67557;DHT22;54387;53.526;49.300;2023-04-15T07:39:55;4.00;20.20
67557;DHT22;54387;53.526;49.300;2023-04-15T07:42:21;4.20;20.20
67557;DHT22;54387;53.526;49.300;2023-04-15T07:44:47;4.30;19.90
67557;DHT22;54387;53.526;49.300;2023-04-15T07:47:14;4.20;19.30
67557;DHT22;54387;53.526;49.300;2023-04-15T07:49:40;4.30;19.20
67557;DHT22;54387;53.526;49.300;2023-04-15T07:52:08;4.30;19.20
67557;DHT22;54387;53.526;49.300;2023-04-15T07:54:34;4.40;19.40
67557;DHT22;54387;53.526;49.300;2023-04-15T07:57:00;4.40;19.00
67557;DHT22;54387;53.526;49.300;2023-04-15T07:59:28;4.50;18.90
67557;DHT22;54387;53.526;49.300;2023-04-15T08:01:56;4.60;18.70
67557;DHT22;54387;53.526;49.300;2023-04-15T08:04:22;4.60;18.60
67557;DHT22;54387;53.526;49.300;2023-04-15T08:06:49;4.70;18.70
67557;DHT22;54387;53.526;49.300;2023-04-15T08:09:17;4.90;18.90
67557;DHT22;54387;53.526;49.300;2023-04-15T08:11:45;5.00;18.80
67557;DHT22;54387;53.526;49.300;2023-04-15T08:14:11;5.10;18.30
67557;DHT22;54387;53.526;49.300;2023-04-15T08:16:37;5.20;19.10
67557;DHT22;54387;53.526;49.300;2023-04-15T08:19:03;5.20;18.30
67557;DHT22;54387;53.526;49.300;2023-04-15T08:21:30;5.30;18.30
67557;DHT22;54387;53.526;49.300;2023-04-15T08:23:56;5.40;18.40
67557;DHT22;54387;53.526;49.300;2023-04-15T08:26:23;5.50;17.90
67557;DHT22;54387;53.526;49.300;2023-04-15T08:28:49;5.60;17.70
67557;DHT22;54387;53.526;49.300;2023-04-15T08:31:16;5.60;17.40
67557;DHT22;54387;53.526;49.300;2023-04-15T08:33:47;5.70;17.10
67557;DHT22;54387;53.526;49.300;2023-04-15T08:36:13;5.70;16.50
67557;DHT22;54387;53.526;49.300;2023-04-15T08:38:40;5.80;16.80
67557;DHT22;54387;53.526;49.300;2023-04-15T08:41:09;5.80;16.90
67557;DHT22;54387;53.526;49.300;2023-04-15T08:43:40;6.00;17.30
67557;DHT22;54387;53.526;49.300;2023-04-15T08:46:09;6.10;17.10
67557;DHT22;54387;53.526;49.300;2023-04-15T08:48:36;6.20;16.90
67557;DHT22;54387;53.526;49.300;2023-04-15T08:51:03;6.30;16.80
67557;DHT22;54387;53.526;49.300;2023-04-15T08:53:30;6.40;16.80
67557;DHT22;54387;53.526;49.300;2023-04-15T08:55:56;6.40;16.50
67557;DHT22;54387;53.526;49.300;2023-04-15T08:58:23;6.40;16.50
67557;DHT22;54387;53.526;49.300;2023-04-15T09:00:50;6.50;16.70
67557;DHT22;54387;53.526;49.300;2023-04-15T09:03:16;6.50;16.40
67557;DHT22;54387;53.526;49.300;2023-04-15T09:05:43;6.60;16.50
67557;DHT22;54387;53.526;49.300;2023-04-15T09:08:10;6.60;16.30
67557;DHT22;54387;53.526;49.300;2023-04-15T09:10:37;6.70;16.50
67557;DHT22;54387;53.526;49.300;2023-04-15T09:13:03;6.80;16.50
67557;DHT22;54387;53.526;49.300;2023-04-15T09:15:29;6.90;16.30
67557;DHT22;54387;53.526;49.300;2023-04-15T09:17:57;6.90;16.40
67557;DHT22;54387;53.526;49.300;2023-04-15T09:20:24;7.20;16.60
67557;DHT22;54387;53.526;49.300;2023-04-15T09:22:50;7.60;16.50
67557;DHT22;54387;53.526;49.300;2023-04-15T09:27:50;9.00;16.10
67557;DHT22;54387;53.526;49.300;2023-04-15T09:30:16;10.30;15.60
67557;DHT22;54387;53.526;49.300;2023-04-15T09:32:49;11.70;14.70
67557;DHT22;54387;53.526;49.300;2023-04-15T09:35:17;13.30;13.90
67557;DHT22;54387;53.526;49.300;2023-04-15T09:37:43;15.00;13.80
67557;DHT22;54387;53.526;49.300;2023-04-15T09:40:09;16.20;12.40
67557;DHT22;54387;53.526;49.300;2023-04-15T09:42:36;17.50;11.80
67557;DHT22;54387;53.526;49.300;2023-04-15T09:45:18;18.60;11.30
67557;DHT22;54387;53.526;49.300;2023-04-15T09:47:45;19.60;11.20
67557;DHT22;54387;53.526;49.300;2023-04-15T09:50:12;20.30;10.70
67557;DHT22;54387;53.526;49.300;2023-04-15T09:52:42;21.30;11.00
67557;DHT22;54387;53.526;49.300;2023-04-15T09:55:09;22.70;11.50
67557;DHT22;54387;53.526;49.300;2023-04-15T09:57:36;23.60;9.80
67557;DHT22;54387;53.526;49.300;2023-04-15T10:00:04;24.50;9.60
67557;DHT22;54387;53.526;49.300;2023-04-15T10:02:31;25.30;9.10
67557;DHT22;54387;53.526;49.300;2023-04-15T10:04:59;26.20;9.10
67557;DHT22;54387;53.526;49.300;2023-04-15T10:07:26;26.90;8.90
67557;DHT22;54387;53.526;49.300;2023-04-15T10:09:53;27.10;8.50
67557;DHT22;54387;53.526;49.300;2023-04-15T10:12:20;27.10;8.70
67557;DHT22;54387;53.526;49.300;2023-04-15T10:14:47;27.20;8.70
67557;DHT22;54387;53.526;49.300;2023-04-15T10:17:14;27.70;8.40
67557;DHT22;54387;53.526;49.300;2023-04-15T10:19:42;28.00;8.50
67557;DHT22;54387;53.526;49.300;2023-04-15T10:22:09;28.40;8.40
67557;DHT22;54387;53.526;49.300;2023-04-15T10:24:35;28.30;8.50
67557;DHT22;54387;53.526;49.300;2023-04-15T10:27:03;28.80;8.50
67557;DHT22;54387;53.526;49.300;2023-04-15T10:29:31;29.60;8.90
67557;DHT22;54387;53.526;49.300;2023-04-15T10:31:57;30.10;8.30
67557;DHT22;54387;53.526;49.300;2023-04-15T10:34:24;29.70;8.10
67557;DHT22;54387;53.526;49.300;2023-04-15T10:36:53;29.40;8.00
67557;DHT22;54387;53.526;49.300;2023-04-15T10:42:09;28.90;7.80
67557;DHT22;54387;53.526;49.300;2023-04-15T10:44:36;28.60;7.60
67557;DHT22;54387;53.526;49.300;2023-04-15T10:47:13;28.20;7.70
67557;DHT22;54387;53.526;49.300;2023-04-15T10:49:44;27.50;7.30
67557;DHT22;54387;53.526;49.300;2023-04-15T10:52:11;26.80;7.30
67557;DHT22;54387;53.526;49.300;2023-04-15T10:54:37;26.50;7.50
67557;DHT22;54387;53.526;49.300;2023-04-15T10:59:37;27.00;7.60
67557;DHT22;54387;53.526;49.300;2023-04-15T11:02:04;27.20;7.60
67557;DHT22;54387;53.526;49.300;2023-04-15T11:04:50;27.10;7.80
67557;DHT22;54387;53.526;49.300;2023-04-15T11:07:36;27.60;7.90
67557;DHT22;54387;53.526;49.300;2023-04-15T11:12:39;28.50;7.60
67557;DHT22;54387;53.526;49.300;2023-04-15T11:17:50;28.20;7.30
67557;DHT22;54387;53.526;49.300;2023-04-15T11:20:17;27.80;7.30
67557;DHT22;54387;53.526;49.300;2023-04-15T11:22:47;27.00;7.50
67557;DHT22;54387;53.526;49.300;2023-04-15T11:25:26;25.90;7.30
67557;DHT22;54387;53.526;49.300;2023-04-15T11:27:53;24.40;7.30
67557;DHT22;54387;53.526;49.300;2023-04-15T11:30:23;22.50;7.30
67557;DHT22;54387;53.526;49.300;2023-04-15T11:32:51;20.50;7.50
67557;DHT22;54387;53.526;49.300;2023-04-15T11:35:17;18.70;7.80
67557;DHT22;54387;53.526;49.300;2023-04-15T11:37:44;17.30;8.10
67557;DHT22;54387;53.526;49.300;2023-04-15T11:40:11;16.30;8.70
67557;DHT22;54387;53.526;49.300;2023-04-15T11:42:38;15.50;8.90
67557;DHT22;54387;53.526;49.300;2023-04-15T11:45:14;14.90;9.10
67557;DHT22;54387;53.526;49.300;2023-04-15T11:47:41;14.50;9.40
67557;DHT22;54387;53.526;49.300;2023-04-15T11:52:56;14.00;9.80
67557;DHT22;54387;53.526;49.300;2023-04-15T11:55:23;14.10;10.20
67557;DHT22;54387;53.526;49.300;2023-04-15T11:57:52;14.50;10.40
67557;DHT22;54387;53.526;49.300;2023-04-15T12:00:30;15.00;10.40
67557;DHT22;54387;53.526;49.300;2023-04-15T12:11:13;15.50;10.30
67557;DHT22;54387;53.526;49.300;2023-04-15T12:13:46;15.50;10.30
67557;DHT22;54387;53.526;49.300;2023-04-15T12:16:19;15.40;10.30
67557;DHT22;54387;53.526;49.300;2023-04-15T12:18:46;15.40;10.30
67557;DHT22;54387;53.526;49.300;2023-04-15T12:21:13;15.30;10.30
67557;DHT22;54387;53.526;49.300;2023-04-15T12:23:47;15.40;10.50
67557;DHT22;54387;53.526;49.300;2023-04-15T12:26:13;15.80;10.40
67557;DHT22;54387;53.526;49.300;2023-04-15T12:28:40;16.00;10.30
67557;DHT22;54387;53.526;49.300;2023-04-15T12:31:09;16.10;10.10
67557;DHT22;54387;53.526;49.300;2023-04-15T12:33:36;16.60;10.20
67557;DHT22;54387;53.526;49.300;2023-04-15T12:36:02;17.30;10.20
67557;DHT22;54387;53.526;49.300;2023-04-15T12:38:29;17.70;9.90
67557;DHT22;54387;53.526;49.300;2023-04-15T12:40:59;17.70;9.80
67557;DHT22;54387;53.526;49.300;2023-04-15T12:43:25;17.30;9.90
67557;DHT22;54387;53.526;49.300;2023-04-15T12:45:52;17.00;10.00
67557;DHT22;54387;53.526;49.300;2023-04-15T12:48:19;16.70;10.00
67557;DHT22;54387;53.526;49.300;2023-04-15T12:50:45;16.50;10.30
67557;DHT22;54387;53.526;49.300;2023-04-15T12:53:11;16.80;10.10
67557;DHT22;54387;53.526;49.300;2023-04-15T12:55:37;17.60;10.10
67557;DHT22;54387;53.526;49.300;2023-04-15T12:58:04;18.80;9.80
67557;DHT22;54387;53.526;49.300;2023-04-15T13:00:32;20.10;9.70
67557;DHT22;54387;53.526;49.300;2023-04-15T13:02:58;21.60;9.40
67557;DHT22;54387;53.526;49.300;2023-04-15T13:05:24;22.80;9.10
67557;DHT22;54387;53.526;49.300;2023-04-15T13:07:51;23.40;8.90
67557;DHT22;54387;53.526;49.300;2023-04-15T13:10:17;23.70;8.60
67557;DHT22;54387;53.526;49.300;2023-04-15T13:12:43;23.70;8.00
67557;DHT22;54387;53.526;49.300;2023-04-15T13:15:12;23.10;8.20
67557;DHT22;54387;53.526;49.300;2023-04-15T13:17:38;22.60;8.20
67557;DHT22;54387;53.526;49.300;2023-04-15T13:20:04;22.20;8.10
67557;DHT22;54387;53.526;49.300;2023-04-15T13:22:31;21.80;8.20
67557;DHT22;54387;53.526;49.300;2023-04-15T13:24:57;21.30;8.20
67557;DHT22;54387;53.526;49.300;2023-04-15T13:27:24;20.70;8.30
67557;DHT22;54387;53.526;49.300;2023-04-15T13:29:50;20.20;8.50
67557;DHT22;54387;53.526;49.300;2023-04-15T13:32:16;19.90;8.50
67557;DHT22;54387;53.526;49.300;2023-04-15T13:34:42;19.90;8.50
67557;DHT22;54387;53.526;49.300;2023-04-15T13:37:08;19.90;8.30
67557;DHT22;54387;53.526;49.300;2023-04-15T13:39:35;20.30;8.40
67557;DHT22;54387;53.526;49.300;2023-04-15T13:42:01;20.80;9.00
67557;DHT22;54387;53.526;49.300;2023-04-15T13:44:28;20.70;7.90
67557;DHT22;54387;53.526;49.300;2023-04-15T13:46:54;20.10;7.80
67557;DHT22;54387;53.526;49.300;2023-04-15T13:49:20;19.40;8.10
67557;DHT22;54387;53.526;49.300;2023-04-15T13:51:47;18.90;8.20
67557;DHT22;54387;53.526;49.300;2023-04-15T13:54:13;18.30;8.30
67557;DHT22;54387;53.526;49.300;2023-04-15T13:56:39;17.80;8.40
67557;DHT22;54387;53.526;49.300;2023-04-15T13:59:06;17.30;8.50
67557;DHT22;54387;53.526;49.300;2023-04-15T14:01:33;16.90;8.80
67557;DHT22;54387;53.526;49.300;2023-04-15T14:03:59;16.50;8.90
67557;DHT22;54387;53.526;49.300;2023-04-15T14:06:26;16.10;9.00
67557;DHT22;54387;53.526;49.300;2023-04-15T14:08:53;16.20;10.00
67557;DHT22;54387;53.526;49.300;2023-04-15T14:11:19;16.10;9.20
67557;DHT22;54387;53.526;49.300;2023-04-15T14:13:46;15.80;9.20
67557;DHT22;54387;53.526;49.300;2023-04-15T14:16:12;15.50;9.30
67557;DHT22;54387;53.526;49.300;2023-04-15T14:18:39;15.30;9.30
67557;DHT22;54387;53.526;49.300;2023-04-15T14:21:05;15.00;9.40
67557;DHT22;54387;53.526;49.300;2023-04-15T14:23:32;14.90;9.70
67557;DHT22;54387;53.526;49.300;2023-04-15T14:25:58;14.80;9.60
67557;DHT22;54387;53.526;49.300;2023-04-15T14:28:24;14.60;9.50
67557;DHT22;54387;53.526;49.300;2023-04-15T14:30:51;14.30;9.50
67557;DHT22;54387;53.526;49.300;2023-04-15T14:33:17;13.90;9.50
67557;DHT22;54387;53.526;49.300;2023-04-15T14:35:43;13.40;9.70
67557;DHT22;54387;53.526;49.300;2023-04-15T14:38:09;13.00;9.90
67557;DHT22;54387;53.526;49.300;2023-04-15T14:40:36;12.90;10.30
67557;DHT22;54387;53.526;49.300;2023-04-15T14:43:02;12.60;10.20
67557;DHT22;54387;53.526;49.300;2023-04-15T14:45:28;12.30;10.30
67557;DHT22;54387;53.526;49.300;2023-04-15T14:47:55;12.10;10.40
67557;DHT22;54387;53.526;49.300;2023-04-15T14:50:21;12.00;10.50
67557;DHT22;54387;53.526;49.300;2023-04-15T14:52:49;11.80;10.70
67557;DHT22;54387;53.526;49.300;2023-04-15T14:55:16;11.60;10.90
67557;DHT22;54387;53.526;49.300;2023-04-15T14:57:42;11.50;10.90
67557;DHT22;54387;53.526;49.300;2023-04-15T15:00:08;11.50;11.10
67557;DHT22;54387;53.526;49.300;2023-04-15T15:02:35;11.60;11.20
67557;DHT22;54387;53.526;49.300;2023-04-15T15:05:02;11.50;11.20
67557;DHT22;54387;53.526;49.300;2023-04-15T15:07:28;11.20;11.20
67557;DHT22;54387;53.526;49.300;2023-04-15T15:09:54;10.90;11.20
67557;DHT22;54387;53.526;49.300;2023-04-15T15:12:21;10.50;11.50
67557;DHT22;54387;53.526;49.300;2023-04-15T15:14:49;10.00;11.70
67557;DHT22;54387;53.526;49.300;2023-04-15T15:17:17;9.60;11.80
67557;DHT22;54387;53.526;49.300;2023-04-15T15:19:43;9.40;12.00
67557;DHT22;54387;53.526;49.300;2023-04-15T15:22:09;9.10;12.20
67557;DHT22;54387;53.526;49.300;2023-04-15T15:24:35;8.80;12.20
67557;DHT22;54387;53.526;49.300;2023-04-15T15:27:02;8.60;12.20
67557;DHT22;54387;53.526;49.300;2023-04-15T15:29:28;8.40;12.30
67557;DHT22;54387;53.526;49.300;2023-04-15T15:31:54;8.20;12.60
67557;DHT22;54387;53.526;49.300;2023-04-15T15:34:20;8.10;12.80
67557;DHT22;54387;53.526;49.300;2023-04-15T15:36:47;7.90;13.00
67557;DHT22;54387;53.526;49.300;2023-04-15T15:39:13;7.70;13.20
67557;DHT22;54387;53.526;49.300;2023-04-15T15:41:39;7.50;13.30
67557;DHT22;54387;53.526;49.300;2023-04-15T15:44:06;7.30;13.40
67557;DHT22;54387;53.526;49.300;2023-04-15T15:46:32;7.20;13.60